Estevan Point, Canada
Current Conditions -  °F | °C
As of 9:21 AM on Sunday 21 Dec 2014 (Local Time) from CYAZ Reporting Station
Rain Showers Rain Showers  
Wind Chill: 46°   Ceiling: 2500
Heat Index: 46°   Visibility: 5mi
Dew Point: 45°   Wind: 0mph
Humidity: 93%   Direction: NA
Pressure: 29.84"   Gusts: NA
Location:  49.38°N, 126.54°W
Report Text: CYAZ 211721Z 00000KT 5SM SHRA FEW005 SCT012 BKN025TCU OVC220 08/07 A2984 RMK SF1CF3TCU3CI1 SLP106
Loading
Personal Weather Stations






























Interactive Weather Map New forecast layout! Learn more

10-Day Weather Forecast

Advertisements
Track Severe Weather on mobile